NCAR-RAP Real-Time Weather Data

Output produced by METARs form (05 December 2019  15:50 UTC)
found at http://weather.rap.ucar.edu/surface/
 
KCAO 051455Z AUTO 29004KT 10SM CLR 07/01 A2984 RMK AO2 SLP095 T00670006 58005
KCAO 051355Z AUTO 24008KT 10SM CLR 04/M01 A2986 RMK AO2 SLP105 T00391011
KCAO 051255Z AUTO 26005KT 10SM CLR 03/M02 A2985 RMK AO2 SLP101 T00281017
KCAO 051155Z AUTO 27011KT 10SM CLR 04/M02 A2986 RMK AO2 SLP099 T00391022 10056 21006 56010
KCAO 051055Z AUTO 28007KT 10SM CLR 01/M03 A2986 RMK AO2 SLP094 T00111028
KCAO 050955Z AUTO 27007KT 10SM CLR 04/M02 A2988 RMK AO2 SLP093 T00441017
KCAO 050855Z AUTO 27009KT 10SM CLR 02/M02 A2989 RMK AO2 SLP101 T00221022 56012
KCAO 050755Z AUTO 28005KT 10SM CLR 03/M03 A2989 RMK AO2 SLP099 T00281033
KCAO 050655Z AUTO 27006KT 10SM CLR 04/M04 A2991 RMK AO2 SLP106 T00441039 401561011
KCAO 050555Z AUTO 27008KT 10SM CLR 04/M04 A2993 RMK AO2 SLP117 T00391039 10072 20000 58004
KCAO 050455Z AUTO 27005KT 10SM CLR 02/M04 A2993 RMK AO2 SLP124 T00221039
KCAO 050355Z AUTO 26005KT 10SM CLR 02/M04 A2995 RMK AO2 SLP134 T00221044
KCAO 050255Z AUTO 28005KT 10SM CLR 03/M04 A2994 RMK AO2 SLP136 T00331039 51002
KCAO 050155Z AUTO 00000KT 10SM CLR 04/M04 A2994 RMK AO2 SLP138 T00391044
KCAO 050055Z AUTO 18004KT 10SM CLR 06/M05 A2994 RMK AO2 SLP132 T00611050
KCAO 042355Z AUTO 14006KT 10SM CLR 07/M06 A2994 RMK AO2 SLP130 T00721056 10156 20072 55004
KCAO 042255Z AUTO 16004KT 10SM CLR 13/M06 A2994 RMK AO2 SLP117 T01331056
KCAO 042155Z AUTO 19004KT 10SM CLR 14/M06 A2994 RMK AO2 SLP122 T01441056
KCAO 042055Z AUTO 00000KT 10SM CLR 14/M07 A2995 RMK AO2 SLP126 T01441067 56023
KCAO 041955Z AUTO 01006KT 10SM FEW100 15/M06 A2996 RMK AO2 SLP124 T01501061